Kingston, Washington
Current Conditions -  °F | °C
As of 9:53 PM on Sunday 25 Jan 2015 (Local Time) from KPAE Reporting Station
Moderate Fog Moderate Fog  
Wind Chill: 46°   Ceiling: 100
Heat Index: 48°   Visibility: 0mi
Dew Point: 47°   Wind: 5mph
Humidity: 96%   Direction: 10°N
Pressure: 30.01"   Gusts: NA
Location:  47.8°N, 122.5°W
Report Text: KPAE 260553Z 01004KT M1/4SM R16R/0700V0800FT FG VV001 09/08 A3001 RMK AO2 SLP163 T00890083 10122 20089 58011
Loading
Personal Weather Stations






























Interactive Weather Map New forecast layout! Learn more

10-Day Weather Forecast

Advertisements
Track Severe Weather on mobile